createdAt,value
2023-01-07T00:00:30.401Z,101396.84
2023-01-07T00:05:31.985Z,101388.53
2023-01-07T00:10:34.780Z,101385.78
2023-01-07T00:15:36.347Z,101391.41
2023-01-07T00:20:37.893Z,101379.50
2023-01-07T00:25:39.455Z,101382.47
2023-01-07T00:30:40.995Z,101383.47
2023-01-07T00:35:44.936Z,101373.03
2023-01-07T00:40:46.439Z,101364.84
2023-01-07T00:45:47.993Z,101365.41
2023-01-07T00:50:51.487Z,101358.63
2023-01-07T00:55:53.060Z,101354.78
2023-01-07T01:00:59.585Z,101352.06
2023-01-07T01:06:06.613Z,101352.69
2023-01-07T01:11:09.859Z,101348.25
2023-01-07T01:16:14.097Z,101345.06
2023-01-07T01:21:16.353Z,101343.34
2023-01-07T01:26:17.977Z,101334.59
2023-01-07T01:31:19.540Z,101340.22
2023-01-07T01:36:21.176Z,101331.19
2023-01-07T01:41:23.228Z,101338.88
2023-01-07T01:46:39.693Z,101330.19
2023-01-07T01:51:46.383Z,101317.19
2023-01-07T01:56:51.123Z,101318.66
2023-01-07T02:01:53.562Z,101322.13
2023-01-07T02:07:04.018Z,101327.47
2023-01-07T02:12:26.472Z,101337.09
2023-01-07T02:18:11.062Z,101326.81
2023-01-07T02:23:40.354Z,101337.13
2023-01-07T02:29:01.041Z,101335.97
2023-01-07T02:34:34.926Z,101341.41
2023-01-07T02:39:51.072Z,101334.09
2023-01-07T02:45:19.867Z,101332.50
2023-01-07T02:50:21.380Z,101340.97
2023-01-07T02:55:30.765Z,101321.34
2023-01-07T03:00:39.698Z,101322.50
2023-01-07T03:05:53.380Z,101321.22
2023-01-07T03:11:05.589Z,101319.53
2023-01-07T03:16:23.907Z,101311.06
2023-01-07T03:21:28.263Z,101306.22
2023-01-07T03:26:42.338Z,101296.50
2023-01-07T03:31:57.389Z,101284.88
2023-01-07T03:37:04.750Z,101282.31
2023-01-07T03:42:26.806Z,101273.28
2023-01-07T03:47:29.035Z,101272.03
2023-01-07T03:52:30.624Z,101272.47
2023-01-07T03:57:33.243Z,101258.28
2023-01-07T04:02:34.949Z,101260.59
2023-01-07T04:07:36.937Z,101254.38
2023-01-07T04:12:38.427Z,101255.41
2023-01-07T04:17:39.938Z,101246.56
2023-01-07T04:22:41.732Z,101242.38
2023-01-07T04:27:43.217Z,101236.94
2023-01-07T04:32:44.765Z,101242.66
2023-01-07T04:37:46.298Z,101231.22
2023-01-07T04:42:47.810Z,101228.91
2023-01-07T04:47:49.368Z,101222.13
2023-01-07T04:52:51.246Z,101209.25
2023-01-07T04:57:52.771Z,101209.84
2023-01-07T05:02:54.287Z,101191.25
2023-01-07T05:07:55.838Z,101209.69
2023-01-07T05:12:57.377Z,101192.06
2023-01-07T05:17:58.883Z,101182.28
2023-01-07T05:23:00.422Z,101171.94
2023-01-07T05:28:02.044Z,101164.78
2023-01-07T05:33:07.124Z,101168.47
2023-01-07T05:38:08.631Z,101167.06
2023-01-07T05:43:10.161Z,101157.19
2023-01-07T05:48:12.602Z,101159.75
2023-01-07T05:53:14.196Z,101151.44
2023-01-07T05:58:15.701Z,101149.13
2023-01-07T06:03:17.273Z,101149.41
2023-01-07T06:08:18.739Z,101141.41
2023-01-07T06:13:20.251Z,101132.41
2023-01-07T06:18:21.741Z,101136.00
2023-01-07T06:23:23.723Z,101131.41
2023-01-07T06:28:25.323Z,101125.53
2023-01-07T06:33:26.855Z,101109.03
2023-01-07T06:38:28.394Z,101106.78
2023-01-07T06:43:30.361Z,101108.19
2023-01-07T06:48:31.960Z,101098.59
2023-01-07T06:53:33.535Z,101080.25
2023-01-07T06:58:35.089Z,101077.53
2023-01-07T07:03:36.625Z,101085.59
2023-01-07T07:08:38.139Z,101088.38
2023-01-07T07:13:39.665Z,101086.63
2023-01-07T07:18:41.169Z,101086.78
2023-01-07T07:23:42.679Z,101089.25
2023-01-07T07:28:44.759Z,101095.84
2023-01-07T07:33:46.246Z,101083.09
2023-01-07T07:38:47.776Z,101075.50
2023-01-07T07:43:49.605Z,101061.75
2023-01-07T07:48:51.171Z,101070.22
2023-01-07T07:53:52.691Z,101062.78
2023-01-07T07:58:54.184Z,101056.22
2023-01-07T08:03:55.868Z,101046.19
2023-01-07T08:08:57.365Z,101050.34
2023-01-07T08:13:58.881Z,101044.16
2023-01-07T08:19:00.433Z,101031.88
2023-01-07T08:24:01.978Z,101029.16
2023-01-07T08:29:03.578Z,101018.84
2023-01-07T08:34:05.116Z,101018.28
2023-01-07T08:39:06.649Z,101019.19
2023-01-07T08:44:08.141Z,101006.53
2023-01-07T08:49:10.727Z,101003.97
2023-01-07T08:54:12.245Z,100996.91
2023-01-07T08:59:13.721Z,101002.75
2023-01-07T09:04:15.236Z,100999.19
2023-01-07T09:09:17.555Z,101000.75
2023-01-07T09:14:19.072Z,100999.88
2023-01-07T09:19:20.714Z,100985.31
2023-01-07T09:24:22.260Z,100980.56
2023-01-07T09:29:23.731Z,100975.44
2023-01-07T09:34:25.201Z,100981.59
2023-01-07T09:39:26.766Z,100974.81
2023-01-07T09:44:59.202Z,100970.06
2023-01-07T09:50:14.123Z,100964.72
2023-01-07T09:55:27.504Z,100962.94
2023-01-07T10:00:31.792Z,100955.75
2023-01-07T10:05:33.229Z,100951.41
2023-01-07T10:10:46.752Z,100950.75
2023-01-07T10:16:11.473Z,100945.88
2023-01-07T10:21:20.970Z,100925.63
2023-01-07T10:26:33.505Z,100926.81
2023-01-07T10:31:36.374Z,100906.31
2023-01-07T10:36:46.403Z,100904.66
2023-01-07T10:42:11.953Z,100888.75
2023-01-07T10:47:38.290Z,100873.25
2023-01-07T10:53:03.014Z,100871.25
2023-01-07T10:58:04.983Z,100847.69
2023-01-07T11:03:16.369Z,100829.16
2023-01-07T11:08:29.054Z,100814.63
2023-01-07T11:13:33.034Z,100806.69
2023-01-07T11:18:51.568Z,100788.72
2023-01-07T11:23:53.147Z,100781.06
2023-01-07T11:28:58.064Z,100764.56
2023-01-07T11:34:01.559Z,100755.09
2023-01-07T11:39:11.923Z,100741.81
2023-01-07T11:44:16.329Z,100748.44
2023-01-07T11:49:27.635Z,100724.06
2023-01-07T11:54:29.905Z,100719.13
2023-01-07T11:59:31.481Z,100707.84
2023-01-07T12:04:35.904Z,100699.84
2023-01-07T12:09:39.925Z,100704.13
2023-01-07T12:14:47.503Z,100687.94
2023-01-07T12:20:07.658Z,100687.41
2023-01-07T12:25:22.876Z,100679.41
2023-01-07T12:30:24.458Z,100666.09
2023-01-07T12:35:47.827Z,100650.25
2023-01-07T12:40:57.708Z,100644.44
2023-01-07T12:46:02.526Z,100634.56
2023-01-07T12:51:22.694Z,100619.91
2023-01-07T12:56:29.041Z,100622.66
2023-01-07T13:01:36.803Z,100594.38
2023-01-07T13:06:44.896Z,100574.44
2023-01-07T13:12:42.108Z,100571.72
2023-01-07T13:17:32.496Z,100557.25
2023-01-07T13:22:53.139Z,100537.13
2023-01-07T13:28:19.386Z,100540.38
2023-01-07T13:33:39.997Z,100539.19
2023-01-07T13:39:19.015Z,100523.50
2023-01-07T13:44:38.656Z,100505.28
2023-01-07T13:49:41.075Z,100504.25
2023-01-07T13:55:01.459Z,100495.75
2023-01-07T14:00:06.989Z,100484.31
2023-01-07T14:05:11.603Z,100486.72
2023-01-07T14:10:32.585Z,100469.03
2023-01-07T14:16:09.381Z,100459.97
2023-01-07T14:21:26.492Z,100452.50
2023-01-07T14:26:54.996Z,100454.72
2023-01-07T14:32:22.815Z,100442.31
2023-01-07T14:37:38.324Z,100444.69
2023-01-07T14:42:44.441Z,100437.88
2023-01-07T14:47:46.193Z,100436.31
2023-01-07T14:53:09.057Z,100441.94
2023-01-07T14:58:28.433Z,100429.34
2023-01-07T15:03:48.855Z,100431.06
2023-01-07T15:09:29.325Z,100409.63
2023-01-07T15:14:59.276Z,100409.47
2023-01-07T15:20:05.800Z,100395.00
2023-01-07T15:25:14.930Z,100390.06
2023-01-07T15:30:38.062Z,100399.75
2023-01-07T15:35:43.091Z,100393.44
2023-01-07T15:40:46.921Z,100379.00
2023-01-07T15:45:49.718Z,100371.84
2023-01-07T15:50:51.892Z,100373.22
2023-01-07T15:56:03.944Z,100366.59
2023-01-07T16:01:07.770Z,100342.25
2023-01-07T16:06:39.284Z,100335.09
2023-01-07T16:11:40.850Z,100341.25
2023-01-07T16:16:42.485Z,100331.84
2023-01-07T16:21:53.166Z,100321.50
2023-01-07T16:27:05.595Z,100314.50
2023-01-07T16:32:07.826Z,100316.59
2023-01-07T16:37:15.761Z,100311.81
2023-01-07T16:42:19.909Z,100310.97
2023-01-07T16:47:27.145Z,100318.94
2023-01-07T16:52:49.615Z,100320.59
2023-01-07T16:57:51.131Z,100324.88
2023-01-07T17:02:59.689Z,100320.94
2023-01-07T17:08:05.773Z,100312.63
2023-01-07T17:13:31.996Z,100294.78
2023-01-07T17:18:34.565Z,100303.28
2023-01-07T17:23:42.234Z,100301.25
2023-01-07T17:28:45.841Z,100287.63
2023-01-07T17:33:48.219Z,100287.78
2023-01-07T17:38:50.007Z,100297.50
2023-01-07T17:43:51.518Z,100285.25
2023-01-07T17:48:53.603Z,100281.50
2023-01-07T17:53:58.928Z,100269.94
2023-01-07T17:59:00.568Z,100270.09
2023-01-07T18:04:02.105Z,100273.00
2023-01-07T18:09:04.919Z,100255.81
2023-01-07T18:14:06.923Z,100260.97
2023-01-07T18:19:12.273Z,100247.84
2023-01-07T18:24:19.650Z,100245.97
2023-01-07T18:29:21.196Z,100236.28
2023-01-07T18:34:22.733Z,100236.81
2023-01-07T18:39:24.245Z,100220.31
2023-01-07T18:44:25.983Z,100217.91
2023-01-07T18:49:27.529Z,100227.28
2023-01-07T18:54:31.340Z,100225.06
2023-01-07T18:59:32.874Z,100226.78
2023-01-07T19:04:37.416Z,100224.72
2023-01-07T19:09:39.021Z,100229.63
2023-01-07T19:14:40.920Z,100231.50
2023-01-07T19:19:48.282Z,100236.47
2023-01-07T19:24:50.479Z,100239.34
2023-01-07T19:29:52.019Z,100228.63
2023-01-07T19:34:53.525Z,100216.91
2023-01-07T19:39:54.985Z,100207.41
2023-01-07T19:44:56.552Z,100205.19
2023-01-07T19:49:58.037Z,100196.00
2023-01-07T19:54:59.574Z,100189.38
2023-01-07T20:00:01.768Z,100181.72
2023-01-07T20:05:03.326Z,100178.31
2023-01-07T20:10:05.075Z,100172.03
2023-01-07T20:15:07.260Z,100151.63
2023-01-07T20:20:09.868Z,100150.94
2023-01-07T20:25:12.294Z,100147.88
2023-01-07T20:30:13.865Z,100142.78
2023-01-07T20:35:15.399Z,100152.81
2023-01-07T20:40:16.931Z,100150.94
2023-01-07T20:45:18.499Z,100151.78
2023-01-07T20:50:19.972Z,100138.72
2023-01-07T20:55:21.512Z,100136.69
2023-01-07T21:00:23.035Z,100127.16
2023-01-07T21:05:24.675Z,100139.22
2023-01-07T21:10:26.351Z,100117.97
2023-01-07T21:15:28.447Z,100114.53
2023-01-07T21:20:30.439Z,100113.38
2023-01-07T21:25:32.013Z,100123.41
2023-01-07T21:30:33.991Z,100125.75
2023-01-07T21:35:39.417Z,100113.38
2023-01-07T21:40:40.994Z,100103.13
2023-01-07T21:45:42.506Z,100108.72
2023-01-07T21:50:44.009Z,100109.25
2023-01-07T21:55:45.571Z,100118.59
2023-01-07T22:00:53.098Z,100108.91
2023-01-07T22:05:58.072Z,100094.84
2023-01-07T22:10:59.670Z,100087.88
2023-01-07T22:16:04.894Z,100099.44
2023-01-07T22:21:06.496Z,100106.56
2023-01-07T22:26:08.491Z,100097.03
2023-01-07T22:31:20.975Z,100100.28
2023-01-07T22:36:34.541Z,100112.66
2023-01-07T22:41:37.111Z,100100.41
2023-01-07T22:46:40.689Z,100104.50
2023-01-07T22:51:45.589Z,100100.41
2023-01-07T22:56:48.033Z,100102.09
2023-01-07T23:01:49.553Z,100104.13
2023-01-07T23:06:51.067Z,100110.78
2023-01-07T23:11:54.758Z,100110.28
2023-01-07T23:16:56.640Z,100129.00
2023-01-07T23:21:58.094Z,100124.88
2023-01-07T23:26:59.675Z,100123.19
2023-01-07T23:32:01.271Z,100122.97
2023-01-07T23:37:02.910Z,100112.59
2023-01-07T23:42:04.430Z,100106.81
2023-01-07T23:47:06.013Z,100110.38
2023-01-07T23:52:07.577Z,100102.56
2023-01-07T23:57:09.534Z,100099.19
